Terminal Aerodrome Forecast
Issued by NWS

Home | Current Version | Previous Version | Text Only | Print | Product List | Glossary On
Versions: 1 2 3 4 5 6 7 8 9 10 11 12 13 14 15 16 17 18 19
000
FTUS41 KPHI 271731
TAFPNE
TAF
KPNE 271731Z 2718/2818 22005KT P6SM OVC025
     FM272000 20007KT P6SM SCT025 BKN050
     FM272300 19006KT P6SM VCTS SCT040CB BKN150
     FM280300 VRB04KT P6SM SCT150 BKN250
     FM280600 VRB03KT P6SM BKN025 OVC050
     FM280900 VRB03KT 3SM BR BKN008 OVC025
     FM281500 08005KT 4SM -SHRA BR BKN008 OVC015=

USA.gov is the U.S. government's official web portal to all federal, state and local government web resources and services.